| Date | Time | Temp. (oF) | Dew Point (oF) | Rel. Hum. (%) | Press. (in.) | Wind Dir. | Wind Speed (mph) | Hourly Rainfall (in.) |
|
|---|---|---|---|---|---|---|---|---|---|
| 1 | 10/24 | 00:00 | 45 | 36 | 73 | 30.37 | NE | 1 | 0.00 |
| 2 | 10/23 | 23:00 | 46 | 37 | 72 | 30.37 | ESE | 3 | 0.00 |
| 3 | 10/23 | 22:00 | 46 | 36 | 70 | 30.37 | ENE | 1 | 0.00 |
| 4 | 10/23 | 21:00 | 47 | 35 | 65 | 30.37 | NNW | 1 | 0.00 |
| 5 | 10/23 | 20:00 | 48 | 36 | 64 | 30.35 | NNW | 3 | 0.00 |
| 6 | 10/23 | 19:00 | 50 | 37 | 61 | 30.32 | N | 4 | 0.00 |
| 7 | 10/23 | 18:00 | 52 | 37 | 57 | 30.30 | NW | 6 | 0.00 |
| 8 | 10/23 | 17:00 | 55 | 38 | 53 | 30.27 | NW | 6 | 0.00 |
| 9 | 10/23 | 16:00 | 56 | 38 | 51 | 30.26 | N | 7 | 0.00 |
| 10 | 10/23 | 15:00 | 56 | 40 | 57 | 30.26 | NNW | 4 | 0.00 |
| 11 | 10/23 | 14:00 | 56 | 41 | 58 | 30.28 | WNW | 6 | 0.00 |
| 12 | 10/23 | 13:00 | 54 | 43 | 67 | 30.29 | NNW | 4 | 0.00 |
| 13 | 10/23 | 12:00 | 54 | 45 | 73 | 30.29 | NW | 5 | 0.00 |
| 14 | 10/23 | 11:00 | 52 | 46 | 82 | 30.28 | WSW | 5 | 0.00 |
| 15 | 10/23 | 10:00 | 49 | 47 | 94 | 30.27 | NNW | 5 | 0.00 |
| 16 | 10/23 | 09:00 | 40 | 40 | 100 | 30.26 | NW | 1 | 0.00 |
| 17 | 10/23 | 08:00 | 36 | 36 | 100 | 30.23 | WSW | 0 | 0.00 |
| 18 | 10/23 | 07:00 | 36 | 36 | 100 | 30.21 | NW | 0 | 0.00 |
| 19 | 10/23 | 06:00 | 37 | 36 | 100 | 30.20 | NW | 0 | 0.00 |
| 20 | 10/23 | 05:00 | 38 | 37 | 99 | 30.19 | NW | 0 | 0.00 |
| 21 | 10/23 | 04:00 | 39 | 38 | 99 | 30.20 | NNW | 1 | 0.00 |
| 22 | 10/23 | 03:00 | 39 | 38 | 98 | 30.19 | SSW | 1 | 0.00 |
| 23 | 10/23 | 02:00 | 40 | 39 | 97 | 30.18 | S | 0 | 0.00 |
| 24 | 10/23 | 01:00 | 41 | 39 | 95 | 30.19 | S | 0 | 0.00 |